ADDS METAR Data INFO
IDs: Format: Raw Decoded Include TAF

Data at: 0406 UTC 11 Dec 2017

KBKN 110355Z AUTO 26006KT 10SM CLR 04/M07 A3025 RMK AO2
KBKN 110335Z AUTO 26009KT 10SM CLR 05/M06 A3025 RMK AO2
KBKN 110315Z AUTO 25008KT 10SM CLR 05/M06 A3025 RMK AO2
KBKN 110255Z AUTO 24009KT 10SM CLR 05/M07 A3025 RMK AO2
KBKN 110235Z AUTO 24007KT 10SM CLR 04/M07 A3025 RMK AO2
KBKN 110215Z AUTO 27008KT 10SM CLR 07/M07 A3025 RMK AO2
KBKN 110155Z AUTO 26006KT 10SM CLR 06/M07 A3025 RMK AO2
KBKN 110135Z AUTO 27006KT 10SM CLR 07/M07 A3025 RMK AO2
KBKN 110115Z AUTO 26006KT 10SM CLR 08/M07 A3025 RMK AO2
KBKN 110055Z AUTO 27008KT 10SM CLR 09/M08 A3025 RMK AO2
KBKN 110035Z AUTO 27007KT 10SM CLR 09/M08 A3025 RMK AO2
KBKN 110015Z AUTO 28008KT 10SM CLR 10/M07 A3025 RMK AO2
KBKN 102355Z AUTO 27008KT 10SM CLR 11/M08 A3025 RMK AO2
KBKN 102335Z AUTO 26007KT 10SM CLR 13/M08 A3025 RMK AO2
KBKN 102315Z AUTO 27007KT 9SM CLR 14/M08 A3025 RMK AO2
KBKN 102255Z AUTO 28005KT 10SM CLR 16/M06 A3025 RMK AO2
KBKN 102235Z AUTO 29006KT 10SM CLR 18/M06 A3025 RMK AO2
KBKN 102215Z AUTO 31005KT 10SM CLR 19/M08 A3024 RMK AO2
KBKN 102155Z AUTO 32010KT 10SM CLR 20/M09 A3024 RMK AO2
KBKN 102135Z AUTO 30008G15KT 10SM CLR 20/M08 A3024 RMK AO2
KBKN 102115Z AUTO 32013G18KT 10SM CLR 20/M08 A3024 RMK AO2
KBKN 102055Z AUTO 32015KT 10SM CLR 19/M08 A3024 RMK AO2
KBKN 102035Z AUTO 32012KT 10SM CLR 19/M08 A3025 RMK AO2
KBKN 102015Z AUTO 30013KT 10SM CLR 19/M08 A3026 RMK AO2
KBKN 101955Z AUTO 30015KT 10SM CLR 18/M08 A3026 RMK AO2
KBKN 101935Z AUTO 30013G19KT 10SM CLR 18/M09 A3026 RMK AO2
KBKN 101915Z AUTO 30015KT 10SM CLR 18/M09 A3027 RMK AO2
KBKN 101855Z AUTO 31015KT 10SM CLR 17/M09 A3027 RMK AO2
KBKN 101835Z AUTO 30014KT 10SM CLR 16/M09 A3028 RMK AO2
KBKN 101815Z AUTO 31013KT 10SM -DZ CLR 16/M09 A3028 RMK AO2
KBKN 101755Z AUTO 30013G18KT 10SM CLR 15/M09 A3029 RMK AO2
KBKN 101735Z AUTO 30015KT 10SM CLR 15/M08 A3030 RMK AO2
KBKN 101715Z AUTO 28012KT 10SM CLR 14/M08 A3030 RMK AO2
KBKN 101655Z AUTO 28009G14KT 10SM CLR 13/M08 A3030 RMK AO2
KBKN 101635Z AUTO 28013KT 10SM CLR 11/M08 A3030 RMK AO2
KBKN 101615Z AUTO 29012KT 10SM CLR 09/M07 A3031 RMK AO2
KBKN 101555Z AUTO 28013KT 10SM CLR 08/M07 A3031 RMK AO2
KBKN 101535Z AUTO 28011KT 10SM CLR 07/M08 A3030 RMK AO2
KBKN 101515Z AUTO 28012KT 10SM CLR 05/M08 A3030 RMK AO2
KBKN 101455Z AUTO 28011KT 10SM CLR 04/M08 A3030 RMK AO2
KBKN 101435Z AUTO 27009KT 10SM CLR 02/M08 A3030 RMK AO2
KBKN 101415Z AUTO 27009KT 10SM CLR 01/M07 A3029 RMK AO2
KBKN 101355Z AUTO 26008KT 10SM CLR M00/M07 A3029 RMK AO2
KBKN 101335Z AUTO 27006KT 10SM CLR M02/M07 A3028 RMK AO2
KBKN 101315Z AUTO 23004KT 10SM CLR M01/M07 A3027 RMK AO2
KBKN 101255Z AUTO 27006KT 10SM CLR M01/M07 A3027 RMK AO2
KBKN 101235Z AUTO 26003KT 10SM CLR M00/M07 A3027 RMK AO2
KBKN 101215Z AUTO 27009KT 10SM CLR 00/M07 A3026 RMK AO2
KBKN 101155Z AUTO 27012KT 10SM CLR 00/M07 A3025 RMK AO2
KBKN 101135Z AUTO 27010KT 10SM CLR M00/M07 A3026 RMK AO2
KBKN 101115Z AUTO 26011KT 10SM CLR M01/M07 A3025 RMK AO2
KBKN 101055Z AUTO 24011KT 10SM CLR M01/M06 A3025 RMK AO2
KBKN 101035Z AUTO 24010KT 10SM CLR M02/M06 A3025 RMK AO2
KBKN 101015Z AUTO 24010KT 10SM CLR M01/M06 A3026 RMK AO2
KBKN 100955Z AUTO 23011KT 10SM CLR M01/M06 A3026 RMK AO2
KBKN 100935Z AUTO 24011KT 10SM CLR M00/M06 A3027 RMK AO2
KBKN 100915Z AUTO 24010KT 10SM CLR M01/M06 A3027 RMK AO2
KBKN 100855Z AUTO 25010KT 10SM M00/M05 A3028 RMK AO2
KBKN 100835Z AUTO 10SM A3028 RMK AO2
KBKN 100815Z AUTO 25009KT 10SM CLR M02/M06 A3029 RMK AO2
KBKN 100755Z AUTO 24007KT 10SM CLR M03/M06 A3029 RMK AO2
KBKN 100735Z AUTO 25007KT 10SM CLR M02/M06 A3029 RMK AO2
KBKN 100715Z AUTO 24007KT 10SM CLR M02/M06 A3029 RMK AO2
KBKN 100655Z AUTO 24006KT 10SM CLR M01/M06 A3029 RMK AO2
KBKN 100635Z AUTO 22006KT 10SM CLR M01/M06 A3029 RMK AO2
KBKN 100615Z AUTO 22006KT 10SM CLR M02/M06 A3030 RMK AO2
KBKN 100555Z AUTO 23007KT 10SM CLR M01/M06 A3030 RMK AO2
KBKN 100535Z AUTO 22006KT 10SM CLR M02/M06 A3031 RMK AO2
KBKN 100515Z AUTO 22005KT 10SM CLR M02/M06 A3031 RMK AO2
KBKN 100455Z AUTO 21004KT 10SM CLR M02/M07 A3031 RMK AO2
KBKN 100435Z AUTO 23005KT 10SM CLR M01/M06 A3031 RMK AO2
KBKN 100415Z AUTO 24006KT 10SM CLR 01/M06 A3031 RMK AO2
KBKN 100355Z AUTO 24005KT 10SM CLR 01/M06 A3031 RMK AO2
KBKN 100335Z AUTO 23005KT 10SM CLR M01/M06 A3031 RMK AO2
KBKN 100315Z AUTO 23006KT 10SM CLR 01/M07 A3031 RMK AO2
KBKN 100255Z AUTO 24004KT 10SM CLR 01/M06 A3031 RMK AO2
KBKN 100235Z AUTO 24003KT 10SM CLR 01/M06 A3031 RMK AO2
KBKN 100215Z AUTO 22005KT 10SM CLR 01/M06 A3031 RMK AO2
KBKN 100155Z AUTO 23004KT 10SM CLR 01/M07 A3030 RMK AO2
KBKN 100135Z AUTO 00000KT 9SM CLR 02/M06 A3030 RMK AO2
KBKN 100115Z AUTO 00000KT 10SM CLR 02/M06 A3029 RMK AO2
KBKN 100055Z AUTO 32003KT 9SM CLR 04/M06 A3029 RMK AO2
KBKN 100035Z AUTO 00000KT 9SM CLR 03/M06 A3029 RMK AO2
KBKN 100015Z AUTO 00000KT 10SM CLR 04/M06 A3028 RMK AO2
KBKN 092355Z AUTO 00000KT 10SM CLR 06/M06 A3028 RMK AO2
KBKN 092335Z AUTO 33004KT 10SM CLR 08/M05 A3027 RMK AO2
KBKN 092315Z AUTO 34004KT 8SM CLR 08/M05 A3027 RMK AO2
KBKN 092255Z AUTO 33006KT 10SM CLR 10/M05 A3027 RMK AO2
KBKN 092235Z AUTO 33007KT 10SM CLR 11/M05 A3027 RMK AO2
KBKN 092215Z AUTO 32008KT 10SM CLR 12/M05 A3027 RMK AO2
KBKN 092155Z AUTO 32010G16KT 10SM CLR 12/M05 A3026 RMK AO2
KBKN 092135Z AUTO 32012KT 10SM CLR 13/M05 A3026 RMK AO2
KBKN 092115Z AUTO 33013G21KT 10SM CLR 13/M05 A3026 RMK AO2
KBKN 092055Z AUTO 33011KT 10SM CLR 13/M05 A3026 RMK AO2
KBKN 092035Z AUTO 34015KT 10SM CLR 13/M05 A3026 RMK AO2
KBKN 092015Z AUTO 32013G23KT 10SM CLR 12/M05 A3026 RMK AO2
KBKN 091955Z AUTO 32016KT 10SM CLR 12/M05 A3026 RMK AO2
KBKN 091935Z AUTO 33015G20KT 10SM CLR 12/M05 A3026 RMK AO2
KBKN 091915Z AUTO 32012G19KT 10SM CLR 12/M05 A3026 RMK AO2
KBKN 091855Z AUTO 32014KT 10SM CLR 11/M06 A3027 RMK AO2
KBKN 091835Z AUTO 32013G18KT 10SM CLR 11/M06 A3026 RMK AO2
KBKN 091815Z AUTO 33013KT 10SM CLR 10/M05 A3027 RMK AO2
KBKN 091755Z AUTO 33016KT 10SM CLR 10/M05 A3028 RMK AO2
KBKN 091735Z AUTO 33015KT 10SM CLR 10/M05 A3028 RMK AO2
KBKN 091715Z AUTO 32013KT 10SM CLR 09/M04 A3028 RMK AO2
KBKN 091655Z AUTO 33013KT 10SM CLR 08/M04 A3029 RMK AO2
KBKN 091635Z AUTO 32012KT 10SM CLR 07/M04 A3028 RMK AO2
KBKN 091615Z AUTO 30011KT 10SM CLR 06/M04 A3028 RMK AO2